Badger Spring Valley, Nevada Weather observations

Data are for 10 minute period ending at time listed.
 Day   Time   Solar   Ave.   Ave.  Ave.  Vector  Max.   Baro.   Total    
  of    of     Rad.   Air    Rel.  Wind   Wind   Wind  Press.  Precip.   
Year   Day            Temp.  Hum.  Speed  Dir.   Gust                    
2016   (PST)  Kw/m2    F      %     mph   deg.    mph    mb.     in.     
-------------------------------------------------------------------------
 120   10:20   0.20   52.0    59    7.3   105    11.9   826.8    0.00 
 120   10:30   0.14   51.4    60    6.6    88    10.2   826.7    0.00 
 120   10:40   0.24   51.4    58    5.1    70     7.5   826.8    0.00 
 120   10:50   0.37   51.8    55    5.2   104     7.6   826.7    0.00 
 120   11:00   0.62   52.7    53    4.8   123     8.0   826.6    0.00 
 120   11:10   0.69   54.4    52    6.8   135    10.7   826.4    0.00 
 120   11:20   0.63   54.8    50    6.1   167     9.2   826.4    0.00 
 120   11:30   0.43   55.0    50    8.5   158    12.3   826.2    0.00 
 120   11:40   0.31   54.9    48    3.8   159     8.3   826.2    0.00 
 120   11:50   0.27   54.9    49    5.3   241    11.9   826.1    0.00 
 120   12:00   0.39   53.1    51    7.7    69    13.9   826.0    0.00 
 120   12:10   0.51   53.9    50    6.0   128    10.2   826.0    0.00 
 120   12:20   0.60   55.3    46    4.0   170    10.2   826.0    0.00 
 120   12:30   0.42   55.7    35    8.6   224    12.6   826.0    0.00 
 120   12:40   0.57   56.1    36    7.1   251    13.4   825.8    0.00 
 120   12:50   0.94   57.5    34    6.3   257    12.6   825.7    0.00 
 120   13:00   0.52   56.9    33    6.2   277    11.2   825.7    0.00 
 120   13:10   0.62   56.9    32    6.6   256    13.8   825.5    0.00 
 120   13:20   0.90   57.5    31    9.1   285    15.0   825.4    0.00 
 120   13:30   1.16   58.8    31    8.8   267    16.2   825.3    0.00 
 120   13:40   0.93   60.0    30    5.9   278    17.6   825.3    0.00 
 120   13:50   0.54   58.4    31    9.3   258    16.5   825.3    0.00 
 120   14:00   0.29   56.8    34    8.1   269    15.9   825.2    0.00 
 120   14:10   0.35   56.8    36    6.7   200    13.8   825.1    0.00 
 120   14:20   0.40   56.7    38    5.7   197    12.2   824.9    0.00 
 120   14:30   0.28   56.5    39    9.2   209    15.3   824.8    0.00 
 120   14:40   0.26   55.9    39    4.5   248     8.8   824.7    0.00 
 120   14:50   0.43   56.0    41    6.2   256    12.1   824.6    0.00 
 120   15:00   0.36   56.8    37    5.6   252    13.2   824.2    0.00 
 120   15:10   0.21   56.5    38    1.4   176     3.4   824.1    0.00 
 120   15:20   0.17   56.7    37    2.1    79     5.0   823.8    0.00 
 120   15:30   0.33   56.5    38    4.0   296     7.7   823.7    0.00 
 120   15:40   0.34   57.3    34    3.4   286     6.3   823.5    0.00 
 120   15:50   0.37   57.8    33    5.9   261    13.1   823.4    0.00 
 120   16:00   0.31   58.7    30    9.3   210    17.5   823.3    0.00 
 120   16:10   0.38   58.8    28    6.8   227    11.3   823.3    0.00 
 120   16:20   0.34   59.2    27    6.1   231    12.3   823.2    0.00 
 120   16:30   0.29   59.6    26    6.0   266    10.2   823.2    0.00 
 120   16:40   0.20   58.5    28    5.8   243     9.0   823.1    0.00 
 120   16:50   0.19   58.4    27    7.2   237    11.8   822.9    0.00 
 120   17:00   0.11   57.9    27    6.0   223    14.1   822.9    0.00 
 120   17:10   0.06   57.3    28    8.8   244    13.7   822.8    0.00 
 120   17:20   0.05   57.1    28    9.4   239    14.4   822.8    0.00 
 120   17:30   0.05   56.9    29    7.2   252    10.2   822.8    0.00 
 120   17:40   0.05   56.8    30    4.4   261     7.3   822.8    0.00 
 120   17:50   0.04   56.6    30    7.9   290    21.3   822.8    0.00 
 120   18:00   0.03   56.4    30    4.0   289     8.2   822.7    0.00 
 120   18:10   0.02   55.3    35    4.1   322     6.5   822.7    0.00 
 120   18:20   0.01   54.0    39    4.1   293     5.5   822.6    0.00 
 120   18:30   0.00   53.3    42    3.7   304     5.5   822.6    0.00 
 120   18:40   0.00   53.0    43    4.1   324     5.3   822.6    0.00 
 120   18:50   0.00   52.5    46    5.4   307     7.7   822.6    0.00 
 120   19:00   0.00   52.9    43    9.0   290    29.9   822.8    0.00 
 120   19:10   0.00   53.0    40   21.2   292    29.7   823.3    0.00 
 120   19:20   0.00   51.3    47   13.0   304    23.1   823.7    0.00 
 120   19:30   0.00   50.6    48   11.7   319    16.5   823.6    0.00 
 120   19:40   0.00   50.4    50    8.9   320    13.1   823.6    0.00 
 120   19:50   0.00   50.3    51    8.5   311    12.5   823.7    0.00 
 120   20:00   0.00   50.0    53   11.9   305    22.4   823.9    0.00 
 120   20:10   0.00   48.9    58   15.7   296    23.5   824.1    0.00 
 120   20:20   0.00   48.1    62   13.0   311    17.8   824.2    0.00 
 120   20:30   0.00   47.1    67   14.9   317    23.9   824.4    0.00 
 120   20:40   0.00   46.2    70   15.9   308    23.2   824.5    0.00 
 120   20:50   0.00   45.2    77   12.7   302    17.8   824.6    0.00 
 120   21:00   0.00   44.9    76    9.8   331    13.4   824.1    0.00 
 120   21:10   0.00   45.0    77    9.8   354    14.5   824.0    0.00 
 120   21:20   0.00   44.6    79    9.1   358    13.1   823.9    0.00 
 120   21:30   0.00   44.7    78   11.1     6    15.6   823.9    0.00 
 120   21:40   0.00   44.7    78   10.2    11    14.8   823.7    0.00 
 120   21:50   0.00   44.7    79    9.1     8    15.3   823.7    0.00 
 120   22:00   0.00   44.2    82    9.3   351    13.4   823.7    0.00 
 120   22:10   0.00   43.4    86   10.7   337    19.1   823.6    0.00 
 120   22:20   0.00   44.4    80   12.5   333    23.4   823.6    0.00 
 120   22:30   0.00   44.8    78   14.9   348    21.9   823.7    0.00 
 120   22:40   0.00   43.7    83   15.7   347    25.1   823.7    0.01 
 120   22:50   0.00   42.9    83   15.6   341    22.9   823.7    0.00 
 120   23:00   0.00   42.5    85   14.3   340    20.2   823.5    0.00 
 120   23:10   0.00   42.2    85   14.4   340    20.8   823.4    0.01 
 120   23:20   0.00   41.8    82   16.5   339    23.4   823.3    0.00 
 120   23:30   0.00   41.3    84   15.9   334    23.5   823.3    0.00 
 120   23:40   0.00   40.8    87   12.7   342    21.3   823.3    0.01 
 120   23:50   0.00   40.6    88    9.7   336    18.5   823.4    0.01 
 121    0:00   0.00   40.4    89    9.5   344    14.9   823.3    0.02 
 121    0:10   0.00   40.2    89   10.1   342    18.0   823.4    0.03 
 121    0:20   0.00   40.0    89    8.9   336    15.9   823.5    0.03 
 121    0:30   0.00   39.5    88    9.7   336    16.5   823.5    0.04 
 121    0:40   0.00   39.2    89    8.3   340    13.1   823.4    0.03 
 121    0:50   0.00   39.1    89    8.4   339    14.0   823.2    0.03 
 121    1:00   0.00   39.1    88    6.5   328    11.2   823.0    0.03 
 121    1:10   0.00   39.3    87    4.7   316     9.7   822.9    0.03 
 121    1:20   0.00   39.8    87    6.2   350    11.0   822.7    0.03 
 121    1:30   0.00   40.0    86    8.3   345    13.0   822.6    0.02 
 121    1:40   0.00   40.0    87    6.0   356    14.6   822.6    0.03 
 121    1:50   0.00   39.8    89    1.7   356     6.0   822.6    0.03 
 121    2:00   0.00   39.6    90    3.0   334     8.2   822.5    0.02 
 121    2:10   0.00   39.5    90    5.1   336     7.5   822.4    0.02 
 121    2:20   0.00   39.5    89    6.1   324    10.2   822.3    0.01 
 121    2:30   0.00   39.8    88    6.0   325    10.2   822.2    0.01 
 121    2:40   0.00   40.3    86    5.0    16    12.3   822.2    0.01 
 121    2:50   0.00   40.4    87    5.0   343    13.5   822.2    0.00 
 121    3:00   0.00   40.2    89    7.3   339    12.6   822.1    0.01 
 121    3:10   0.00   40.1    90    8.9   340    15.3   822.0    0.01 
 121    3:20   0.00   40.0    91    7.7     1    12.2   822.1    0.02 
 121    3:30   0.00   39.8    93    4.3    17     9.1   822.0    0.02 
 121    3:40   0.00   39.7    93    6.3     0    12.8   821.9    0.02 
 121    3:50   0.00   39.8    93    7.6   354    14.8   821.9    0.01 
 121    4:00   0.00   39.9    94    9.3   352    16.8   821.8    0.01 
 121    4:10   0.00   39.9    94    9.5   347    16.5   821.7    0.01 
 121    4:20   0.00   39.9    94    9.2     0    17.8   821.7    0.01 
 121    4:30   0.00   39.9    94    8.5    27    16.8   821.8    0.03 
 121    4:40   0.00   39.8    93    6.6    39    13.5   821.9    0.03 
 121    4:50   0.00   39.8    94    9.3    48    17.4   821.9    0.02 
 121    5:00   0.00   39.7    94    9.1    10    16.8   821.9    0.01 
 121    5:10   0.00   39.5    93    9.4   356    20.5   821.9    0.04 
 121    5:20   0.00   39.3    93    7.6   358    15.4   822.0    0.03 
 121    5:30   0.00   39.4    94    8.0    11    20.2   822.1    0.04 
 121    5:40   0.00   39.4    94    7.7    18    15.7   822.2    0.04 
 121    5:50   0.01   39.2    93    9.7    18    18.3   822.3    0.03 
 121    6:00   0.01   39.4    93    9.7    26    20.2   822.4    0.04 
 121    6:10   0.01   39.5    93   11.7    23    20.8   822.4    0.03 
 121    6:20   0.01   39.4    92   12.8    26    21.7   822.6    0.03 
 121    6:30   0.02   39.2    91   13.0    26    22.8   822.7    0.04 
 121    6:40   0.04   39.4    92    9.7    20    22.6   822.7    0.02 
 121    6:50   0.04   39.5    93   11.3    20    19.4   822.8    0.02 
 121    7:00   0.05   39.6    92   12.3    25    22.9   822.9    0.04 
 121    7:10   0.07   39.6    92   13.6    21    24.3   822.9    0.03 
 121    7:20   0.07   39.6    91   13.9    25    23.6   823.0    0.03 
 121    7:30   0.05   39.7    92   11.3    18    22.0   823.0    0.02 
 121    7:40   0.07   39.8    93   10.8    10    22.6   823.1    0.03 
 121    7:50   0.09   40.0    92    9.8    12    22.4   823.2    0.02 
 121    8:00   0.09   40.1    92   11.1    13    24.8   823.3    0.03 
 121    8:10   0.09   40.2    92   10.9    25    21.0   823.3    0.03 
 121    8:20   0.11   40.3    93   11.1    24    20.0   823.4    0.04 
 121    8:30   0.12   40.4    93    9.6    22    17.9   823.5    0.04 
 121    8:40   0.13   40.6    92   10.2    28    18.0   823.5    0.04 
 121    8:50   0.14   40.7    92   11.2    29    27.5   823.5    0.03 
 121    9:00   0.11   40.9    91   10.8    20    19.9   823.6    0.02 
 121    9:10   0.08   41.0    91   10.4    18    18.9   823.7    0.02 
 121    9:20   0.09   41.3    91    9.6    24    21.5   823.7    0.03 
 121    9:30   0.10   41.5    90    9.8    28    19.4   823.8    0.02 
 121    9:40   0.09   41.6    90    8.8    47    15.5   823.9    0.04 
 121    9:50   0.08   41.5    92    9.1    50    16.8   824.0    0.04 
 121   10:00   0.09   41.3    94   10.7    61    15.3   824.1    0.04 
 121   10:10   0.10   41.0    94   11.9    71    17.2   824.2    0.04 

Return to Badger Spring Valley graphs page.


Western Regional Climate Center,wrcc@dri.edu